sensor_id;sensor_type;location;lat;lon;timestamp;temperature;humidity
6538;DHT22;3302;52.508;13.454;2023-10-19T00:01:57;7.50;99.90
6538;DHT22;3302;52.508;13.454;2023-10-19T00:04:26;7.50;99.90
6538;DHT22;3302;52.508;13.454;2023-10-19T00:06:55;7.50;99.90
6538;DHT22;3302;52.508;13.454;2023-10-19T00:09:21;7.50;99.90
6538;DHT22;3302;52.508;13.454;2023-10-19T00:11:47;7.50;99.90
6538;DHT22;3302;52.508;13.454;2023-10-19T00:14:16;7.50;99.90
6538;DHT22;3302;52.508;13.454;2023-10-19T00:16:46;7.40;99.90
6538;DHT22;3302;52.508;13.454;2023-10-19T00:19:33;7.40;99.90
6538;DHT22;3302;52.508;13.454;2023-10-19T00:22:05;7.40;99.90
6538;DHT22;3302;52.508;13.454;2023-10-19T00:24:41;7.40;99.90
6538;DHT22;3302;52.508;13.454;2023-10-19T00:27:07;7.50;99.90
6538;DHT22;3302;52.508;13.454;2023-10-19T00:29:42;7.40;99.90
6538;DHT22;3302;52.508;13.454;2023-10-19T00:32:13;7.40;99.90
6538;DHT22;3302;52.508;13.454;2023-10-19T00:34:40;7.50;99.90
6538;DHT22;3302;52.508;13.454;2023-10-19T00:37:07;7.40;99.90
6538;DHT22;3302;52.508;13.454;2023-10-19T00:39:37;7.40;99.90
6538;DHT22;3302;52.508;13.454;2023-10-19T00:42:12;7.50;99.90
6538;DHT22;3302;52.508;13.454;2023-10-19T00:44:41;7.40;99.90
6538;DHT22;3302;52.508;13.454;2023-10-19T00:47:15;7.40;99.90
6538;DHT22;3302;52.508;13.454;2023-10-19T00:49:47;7.40;99.90
6538;DHT22;3302;52.508;13.454;2023-10-19T00:52:14;7.30;99.90
6538;DHT22;3302;52.508;13.454;2023-10-19T00:54:40;7.40;99.90
6538;DHT22;3302;52.508;13.454;2023-10-19T00:57:27;7.30;99.90
6538;DHT22;3302;52.508;13.454;2023-10-19T01:00:01;7.40;99.90
6538;DHT22;3302;52.508;13.454;2023-10-19T01:02:47;7.40;99.90
6538;DHT22;3302;52.508;13.454;2023-10-19T01:05:13;7.40;99.90
6538;DHT22;3302;52.508;13.454;2023-10-19T01:07:39;7.30;99.90
6538;DHT22;3302;52.508;13.454;2023-10-19T01:10:10;7.30;99.90
6538;DHT22;3302;52.508;13.454;2023-10-19T01:13:05;7.30;99.90
6538;DHT22;3302;52.508;13.454;2023-10-19T01:15:32;7.30;99.90
6538;DHT22;3302;52.508;13.454;2023-10-19T01:18:02;7.20;99.90
6538;DHT22;3302;52.508;13.454;2023-10-19T01:20:30;7.20;99.90
6538;DHT22;3302;52.508;13.454;2023-10-19T01:23:00;7.20;99.90
6538;DHT22;3302;52.508;13.454;2023-10-19T01:25:44;7.20;99.90
6538;DHT22;3302;52.508;13.454;2023-10-19T01:28:34;7.20;99.90
6538;DHT22;3302;52.508;13.454;2023-10-19T01:31:24;7.20;99.90
6538;DHT22;3302;52.508;13.454;2023-10-19T01:34:00;7.30;99.90
6538;DHT22;3302;52.508;13.454;2023-10-19T01:36:33;7.30;99.90
6538;DHT22;3302;52.508;13.454;2023-10-19T01:39:07;7.20;99.90
6538;DHT22;3302;52.508;13.454;2023-10-19T01:41:37;7.30;99.90
6538;DHT22;3302;52.508;13.454;2023-10-19T01:44:03;7.20;99.90
6538;DHT22;3302;52.508;13.454;2023-10-19T01:46:30;7.20;99.90
6538;DHT22;3302;52.508;13.454;2023-10-19T01:49:00;7.20;99.90
6538;DHT22;3302;52.508;13.454;2023-10-19T01:51:29;7.30;99.90
6538;DHT22;3302;52.508;13.454;2023-10-19T01:53:56;7.30;99.90
6538;DHT22;3302;52.508;13.454;2023-10-19T01:56:23;7.30;99.90
6538;DHT22;3302;52.508;13.454;2023-10-19T01:58:49;7.30;99.90
6538;DHT22;3302;52.508;13.454;2023-10-19T02:01:18;7.20;99.90
6538;DHT22;3302;52.508;13.454;2023-10-19T02:03:54;7.20;99.90
6538;DHT22;3302;52.508;13.454;2023-10-19T02:06:23;7.20;99.90
6538;DHT22;3302;52.508;13.454;2023-10-19T02:08:56;7.20;99.90
6538;DHT22;3302;52.508;13.454;2023-10-19T02:11:23;7.20;99.90
6538;DHT22;3302;52.508;13.454;2023-10-19T02:13:51;7.30;99.90
6538;DHT22;3302;52.508;13.454;2023-10-19T02:16:18;7.20;99.90
6538;DHT22;3302;52.508;13.454;2023-10-19T02:18:51;7.30;99.90
6538;DHT22;3302;52.508;13.454;2023-10-19T02:21:18;7.30;99.90
6538;DHT22;3302;52.508;13.454;2023-10-19T02:23:57;7.30;99.90
6538;DHT22;3302;52.508;13.454;2023-10-19T02:26:23;7.20;99.90
6538;DHT22;3302;52.508;13.454;2023-10-19T02:28:52;7.20;99.90
6538;DHT22;3302;52.508;13.454;2023-10-19T02:31:19;7.20;99.90
6538;DHT22;3302;52.508;13.454;2023-10-19T02:33:49;7.20;99.90
6538;DHT22;3302;52.508;13.454;2023-10-19T02:36:25;7.30;99.90
6538;DHT22;3302;52.508;13.454;2023-10-19T02:39:00;7.30;99.90
6538;DHT22;3302;52.508;13.454;2023-10-19T02:41:29;7.20;99.90
6538;DHT22;3302;52.508;13.454;2023-10-19T02:43:56;7.20;99.90
6538;DHT22;3302;52.508;13.454;2023-10-19T02:46:34;7.30;99.90
6538;DHT22;3302;52.508;13.454;2023-10-19T02:49:03;7.30;99.90
6538;DHT22;3302;52.508;13.454;2023-10-19T02:51:30;7.30;99.90
6538;DHT22;3302;52.508;13.454;2023-10-19T02:53:56;7.30;99.90
6538;DHT22;3302;52.508;13.454;2023-10-19T02:56:26;7.30;99.90
6538;DHT22;3302;52.508;13.454;2023-10-19T02:58:56;7.30;99.90
6538;DHT22;3302;52.508;13.454;2023-10-19T03:01:30;7.40;99.90
6538;DHT22;3302;52.508;13.454;2023-10-19T03:04:02;7.30;99.90
6538;DHT22;3302;52.508;13.454;2023-10-19T03:06:30;7.20;99.90
6538;DHT22;3302;52.508;13.454;2023-10-19T03:09:03;7.30;99.90
6538;DHT22;3302;52.508;13.454;2023-10-19T03:11:39;7.30;99.90
6538;DHT22;3302;52.508;13.454;2023-10-19T03:14:09;7.30;99.90
6538;DHT22;3302;52.508;13.454;2023-10-19T03:16:37;7.30;99.90
6538;DHT22;3302;52.508;13.454;2023-10-19T03:19:03;7.30;99.90
6538;DHT22;3302;52.508;13.454;2023-10-19T03:21:33;7.40;99.90
6538;DHT22;3302;52.508;13.454;2023-10-19T03:23:59;7.40;99.90
6538;DHT22;3302;52.508;13.454;2023-10-19T03:26:37;7.40;99.90
6538;DHT22;3302;52.508;13.454;2023-10-19T03:29:05;7.30;99.90
6538;DHT22;3302;52.508;13.454;2023-10-19T03:31:38;7.30;99.90
6538;DHT22;3302;52.508;13.454;2023-10-19T03:34:15;7.30;99.90
6538;DHT22;3302;52.508;13.454;2023-10-19T03:36:43;7.30;99.90
6538;DHT22;3302;52.508;13.454;2023-10-19T03:39:10;7.20;99.90
6538;DHT22;3302;52.508;13.454;2023-10-19T03:41:42;7.10;99.90
6538;DHT22;3302;52.508;13.454;2023-10-19T03:44:10;7.20;99.90
6538;DHT22;3302;52.508;13.454;2023-10-19T03:46:44;7.30;99.90
6538;DHT22;3302;52.508;13.454;2023-10-19T03:49:23;7.30;99.90
6538;DHT22;3302;52.508;13.454;2023-10-19T03:52:07;7.30;99.90
6538;DHT22;3302;52.508;13.454;2023-10-19T03:54:37;7.30;99.90
6538;DHT22;3302;52.508;13.454;2023-10-19T03:57:07;7.20;99.90
6538;DHT22;3302;52.508;13.454;2023-10-19T03:59:45;7.20;99.90
6538;DHT22;3302;52.508;13.454;2023-10-19T04:02:11;7.20;99.90
6538;DHT22;3302;52.508;13.454;2023-10-19T04:04:43;7.20;99.90
6538;DHT22;3302;52.508;13.454;2023-10-19T04:07:15;7.10;99.90
6538;DHT22;3302;52.508;13.454;2023-10-19T04:09:53;7.20;99.90
6538;DHT22;3302;52.508;13.454;2023-10-19T04:12:38;7.20;99.90
6538;DHT22;3302;52.508;13.454;2023-10-19T04:15:08;7.30;99.90
6538;DHT22;3302;52.508;13.454;2023-10-19T04:17:44;7.20;99.90
6538;DHT22;3302;52.508;13.454;2023-10-19T04:20:14;7.30;99.90
6538;DHT22;3302;52.508;13.454;2023-10-19T04:22:43;7.10;99.90
6538;DHT22;3302;52.508;13.454;2023-10-19T04:25:09;7.10;99.90
6538;DHT22;3302;52.508;13.454;2023-10-19T04:27:41;7.20;99.90
6538;DHT22;3302;52.508;13.454;2023-10-19T04:30:12;7.20;99.90
6538;DHT22;3302;52.508;13.454;2023-10-19T04:32:45;7.20;99.90
6538;DHT22;3302;52.508;13.454;2023-10-19T04:35:12;7.20;99.90
6538;DHT22;3302;52.508;13.454;2023-10-19T04:37:48;7.10;99.90
6538;DHT22;3302;52.508;13.454;2023-10-19T04:40:16;7.00;99.90
6538;DHT22;3302;52.508;13.454;2023-10-19T04:42:42;7.10;99.90
6538;DHT22;3302;52.508;13.454;2023-10-19T04:45:08;7.10;99.90
6538;DHT22;3302;52.508;13.454;2023-10-19T04:47:34;7.20;99.90
6538;DHT22;3302;52.508;13.454;2023-10-19T04:50:02;7.10;99.90
6538;DHT22;3302;52.508;13.454;2023-10-19T04:52:28;7.00;99.90
6538;DHT22;3302;52.508;13.454;2023-10-19T04:54:54;7.10;99.90
6538;DHT22;3302;52.508;13.454;2023-10-19T04:57:20;7.00;99.90
6538;DHT22;3302;52.508;13.454;2023-10-19T04:59:49;7.10;99.90
6538;DHT22;3302;52.508;13.454;2023-10-19T05:02:15;7.10;99.90
6538;DHT22;3302;52.508;13.454;2023-10-19T05:04:42;7.00;99.90
6538;DHT22;3302;52.508;13.454;2023-10-19T05:07:08;6.90;99.90
6538;DHT22;3302;52.508;13.454;2023-10-19T05:09:38;7.00;99.90
6538;DHT22;3302;52.508;13.454;2023-10-19T05:12:06;7.00;99.90
6538;DHT22;3302;52.508;13.454;2023-10-19T05:14:38;6.90;99.90
6538;DHT22;3302;52.508;13.454;2023-10-19T05:17:05;6.90;99.90
6538;DHT22;3302;52.508;13.454;2023-10-19T05:19:32;7.00;99.90
6538;DHT22;3302;52.508;13.454;2023-10-19T05:21:59;7.10;99.90
6538;DHT22;3302;52.508;13.454;2023-10-19T05:24:26;7.00;99.90
6538;DHT22;3302;52.508;13.454;2023-10-19T05:26:53;7.10;99.90
6538;DHT22;3302;52.508;13.454;2023-10-19T05:29:20;7.10;99.90
6538;DHT22;3302;52.508;13.454;2023-10-19T05:31:46;7.00;99.90
6538;DHT22;3302;52.508;13.454;2023-10-19T05:34:13;7.00;99.90
6538;DHT22;3302;52.508;13.454;2023-10-19T05:36:39;7.00;99.90
6538;DHT22;3302;52.508;13.454;2023-10-19T05:39:10;6.80;99.90
6538;DHT22;3302;52.508;13.454;2023-10-19T05:41:36;6.90;99.90
6538;DHT22;3302;52.508;13.454;2023-10-19T05:44:03;6.90;99.90
6538;DHT22;3302;52.508;13.454;2023-10-19T05:46:29;6.90;99.90
6538;DHT22;3302;52.508;13.454;2023-10-19T05:48:56;6.80;99.90
6538;DHT22;3302;52.508;13.454;2023-10-19T05:51:23;6.90;99.90
6538;DHT22;3302;52.508;13.454;2023-10-19T05:53:50;7.00;99.90
6538;DHT22;3302;52.508;13.454;2023-10-19T05:56:16;6.90;99.90
6538;DHT22;3302;52.508;13.454;2023-10-19T05:58:43;6.90;99.90
6538;DHT22;3302;52.508;13.454;2023-10-19T06:01:10;6.80;99.90
6538;DHT22;3302;52.508;13.454;2023-10-19T06:03:36;6.80;99.90
6538;DHT22;3302;52.508;13.454;2023-10-19T06:06:01;6.90;99.90
6538;DHT22;3302;52.508;13.454;2023-10-19T06:08:27;6.90;99.90
6538;DHT22;3302;52.508;13.454;2023-10-19T06:10:55;6.90;99.90
6538;DHT22;3302;52.508;13.454;2023-10-19T06:13:21;6.70;99.90
6538;DHT22;3302;52.508;13.454;2023-10-19T06:15:50;6.70;99.90
6538;DHT22;3302;52.508;13.454;2023-10-19T06:18:17;6.70;99.90
6538;DHT22;3302;52.508;13.454;2023-10-19T06:20:44;6.70;99.90
6538;DHT22;3302;52.508;13.454;2023-10-19T06:23:10;6.80;99.90
6538;DHT22;3302;52.508;13.454;2023-10-19T06:25:37;6.90;99.90
6538;DHT22;3302;52.508;13.454;2023-10-19T06:28:04;6.80;99.90
6538;DHT22;3302;52.508;13.454;2023-10-19T06:30:30;6.60;99.90
6538;DHT22;3302;52.508;13.454;2023-10-19T06:32:58;6.70;99.90
6538;DHT22;3302;52.508;13.454;2023-10-19T06:35:28;6.50;99.90
6538;DHT22;3302;52.508;13.454;2023-10-19T06:37:55;6.70;99.90
6538;DHT22;3302;52.508;13.454;2023-10-19T06:40:21;6.60;99.90
6538;DHT22;3302;52.508;13.454;2023-10-19T06:42:48;6.70;99.90
6538;DHT22;3302;52.508;13.454;2023-10-19T06:45:18;6.60;99.90
6538;DHT22;3302;52.508;13.454;2023-10-19T06:47:48;6.50;99.90
6538;DHT22;3302;52.508;13.454;2023-10-19T06:50:19;6.70;99.90
6538;DHT22;3302;52.508;13.454;2023-10-19T06:52:46;6.70;99.90
6538;DHT22;3302;52.508;13.454;2023-10-19T06:55:14;6.50;99.90
6538;DHT22;3302;52.508;13.454;2023-10-19T06:57:46;6.60;99.90
6538;DHT22;3302;52.508;13.454;2023-10-19T07:00:17;6.50;99.90
6538;DHT22;3302;52.508;13.454;2023-10-19T07:02:48;6.70;99.90
6538;DHT22;3302;52.508;13.454;2023-10-19T07:05:15;6.80;99.90
6538;DHT22;3302;52.508;13.454;2023-10-19T07:07:46;6.80;99.90
6538;DHT22;3302;52.508;13.454;2023-10-19T07:10:13;6.60;99.90
6538;DHT22;3302;52.508;13.454;2023-10-19T07:12:41;6.70;99.90
6538;DHT22;3302;52.508;13.454;2023-10-19T07:15:10;6.70;99.90
6538;DHT22;3302;52.508;13.454;2023-10-19T07:17:46;6.60;99.90
6538;DHT22;3302;52.508;13.454;2023-10-19T07:20:15;6.70;99.90
6538;DHT22;3302;52.508;13.454;2023-10-19T07:23:00;6.80;99.90
6538;DHT22;3302;52.508;13.454;2023-10-19T07:25:34;6.80;99.90
6538;DHT22;3302;52.508;13.454;2023-10-19T07:28:09;6.90;99.90
6538;DHT22;3302;52.508;13.454;2023-10-19T07:30:35;6.90;99.90
6538;DHT22;3302;52.508;13.454;2023-10-19T07:33:02;7.00;99.90
6538;DHT22;3302;52.508;13.454;2023-10-19T07:35:34;6.90;99.90
6538;DHT22;3302;52.508;13.454;2023-10-19T07:38:01;6.90;99.90
6538;DHT22;3302;52.508;13.454;2023-10-19T07:40:27;7.00;99.90
6538;DHT22;3302;52.508;13.454;2023-10-19T07:42:53;7.10;99.90
6538;DHT22;3302;52.508;13.454;2023-10-19T07:45:20;7.10;99.90
6538;DHT22;3302;52.508;13.454;2023-10-19T07:47:47;7.10;99.90
6538;DHT22;3302;52.508;13.454;2023-10-19T07:50:13;7.10;99.90
6538;DHT22;3302;52.508;13.454;2023-10-19T07:52:47;7.10;99.90
6538;DHT22;3302;52.508;13.454;2023-10-19T07:55:18;7.00;99.90
6538;DHT22;3302;52.508;13.454;2023-10-19T07:57:44;7.20;99.90
6538;DHT22;3302;52.508;13.454;2023-10-19T08:00:11;7.30;99.90
6538;DHT22;3302;52.508;13.454;2023-10-19T08:02:40;7.40;99.90
6538;DHT22;3302;52.508;13.454;2023-10-19T08:05:14;7.30;99.90
6538;DHT22;3302;52.508;13.454;2023-10-19T08:07:40;7.10;99.90
6538;DHT22;3302;52.508;13.454;2023-10-19T08:10:10;7.50;99.90
6538;DHT22;3302;52.508;13.454;2023-10-19T08:12:37;7.40;99.90
6538;DHT22;3302;52.508;13.454;2023-10-19T08:15:04;7.50;99.90
6538;DHT22;3302;52.508;13.454;2023-10-19T08:17:30;7.30;99.90
6538;DHT22;3302;52.508;13.454;2023-10-19T08:19:56;7.30;99.90
6538;DHT22;3302;52.508;13.454;2023-10-19T08:22:23;7.30;99.90
6538;DHT22;3302;52.508;13.454;2023-10-19T08:24:49;7.40;99.90
6538;DHT22;3302;52.508;13.454;2023-10-19T08:27:17;7.40;99.90
6538;DHT22;3302;52.508;13.454;2023-10-19T08:29:43;7.40;99.90
6538;DHT22;3302;52.508;13.454;2023-10-19T08:32:09;7.40;99.90
6538;DHT22;3302;52.508;13.454;2023-10-19T08:34:36;7.50;99.90
6538;DHT22;3302;52.508;13.454;2023-10-19T08:37:02;7.50;99.90
6538;DHT22;3302;52.508;13.454;2023-10-19T08:39:30;7.50;99.90
6538;DHT22;3302;52.508;13.454;2023-10-19T08:42:03;7.50;99.90
6538;DHT22;3302;52.508;13.454;2023-10-19T08:44:30;7.50;99.90
6538;DHT22;3302;52.508;13.454;2023-10-19T08:46:56;7.50;99.90
6538;DHT22;3302;52.508;13.454;2023-10-19T08:49:23;7.40;99.90
6538;DHT22;3302;52.508;13.454;2023-10-19T08:51:49;7.60;99.90
6538;DHT22;3302;52.508;13.454;2023-10-19T08:54:17;7.40;99.90
6538;DHT22;3302;52.508;13.454;2023-10-19T08:56:43;7.60;99.90
6538;DHT22;3302;52.508;13.454;2023-10-19T08:59:10;7.70;99.90
6538;DHT22;3302;52.508;13.454;2023-10-19T09:01:37;7.70;99.90
6538;DHT22;3302;52.508;13.454;2023-10-19T09:04:03;7.70;99.90
6538;DHT22;3302;52.508;13.454;2023-10-19T09:06:36;7.70;99.90
6538;DHT22;3302;52.508;13.454;2023-10-19T09:09:09;7.60;99.90
6538;DHT22;3302;52.508;13.454;2023-10-19T09:11:40;7.60;99.90
6538;DHT22;3302;52.508;13.454;2023-10-19T09:14:06;7.70;99.90
6538;DHT22;3302;52.508;13.454;2023-10-19T09:16:32;7.70;99.90
6538;DHT22;3302;52.508;13.454;2023-10-19T09:18:58;7.90;99.90
6538;DHT22;3302;52.508;13.454;2023-10-19T09:21:23;8.00;99.90
6538;DHT22;3302;52.508;13.454;2023-10-19T09:23:54;7.90;99.90
6538;DHT22;3302;52.508;13.454;2023-10-19T09:26:21;7.80;99.90
6538;DHT22;3302;52.508;13.454;2023-10-19T09:28:51;7.80;99.90
6538;DHT22;3302;52.508;13.454;2023-10-19T09:31:17;8.00;99.90
6538;DHT22;3302;52.508;13.454;2023-10-19T09:33:45;8.10;99.90
6538;DHT22;3302;52.508;13.454;2023-10-19T09:36:12;8.10;99.90
6538;DHT22;3302;52.508;13.454;2023-10-19T09:38:43;8.10;99.90
6538;DHT22;3302;52.508;13.454;2023-10-19T09:41:11;8.10;99.90
6538;DHT22;3302;52.508;13.454;2023-10-19T09:43:44;8.20;99.90
6538;DHT22;3302;52.508;13.454;2023-10-19T09:46:11;8.30;99.90
6538;DHT22;3302;52.508;13.454;2023-10-19T09:48:42;8.20;99.90
6538;DHT22;3302;52.508;13.454;2023-10-19T09:51:09;8.00;99.90
6538;DHT22;3302;52.508;13.454;2023-10-19T09:53:36;8.10;99.90
6538;DHT22;3302;52.508;13.454;2023-10-19T09:56:04;8.20;99.90
6538;DHT22;3302;52.508;13.454;2023-10-19T09:58:55;8.30;99.90
6538;DHT22;3302;52.508;13.454;2023-10-19T10:01:27;8.20;99.90
6538;DHT22;3302;52.508;13.454;2023-10-19T10:03:54;8.20;99.90
6538;DHT22;3302;52.508;13.454;2023-10-19T10:09:19;8.20;99.90
6538;DHT22;3302;52.508;13.454;2023-10-19T10:11:51;8.30;99.90
6538;DHT22;3302;52.508;13.454;2023-10-19T10:14:25;8.30;99.90
6538;DHT22;3302;52.508;13.454;2023-10-19T10:17:16;8.40;99.90
6538;DHT22;3302;52.508;13.454;2023-10-19T10:19:44;8.30;99.90
6538;DHT22;3302;52.508;13.454;2023-10-19T10:22:11;8.40;99.90
6538;DHT22;3302;52.508;13.454;2023-10-19T10:24:43;8.40;99.90
6538;DHT22;3302;52.508;13.454;2023-10-19T10:27:10;8.40;99.90
6538;DHT22;3302;52.508;13.454;2023-10-19T10:29:58;8.50;99.90
6538;DHT22;3302;52.508;13.454;2023-10-19T10:35:09;8.40;99.90
6538;DHT22;3302;52.508;13.454;2023-10-19T10:37:38;8.40;99.90
6538;DHT22;3302;52.508;13.454;2023-10-19T10:40:06;8.30;99.90
6538;DHT22;3302;52.508;13.454;2023-10-19T10:42:32;8.30;99.90
6538;DHT22;3302;52.508;13.454;2023-10-19T10:44:59;8.40;99.90
6538;DHT22;3302;52.508;13.454;2023-10-19T10:47:28;8.40;99.90
6538;DHT22;3302;52.508;13.454;2023-10-19T10:50:00;8.30;99.90
6538;DHT22;3302;52.508;13.454;2023-10-19T10:52:34;8.20;99.90
6538;DHT22;3302;52.508;13.454;2023-10-19T10:55:13;8.20;99.90
6538;DHT22;3302;52.508;13.454;2023-10-19T10:57:40;8.30;99.90
6538;DHT22;3302;52.508;13.454;2023-10-19T11:00:10;8.20;99.90
6538;DHT22;3302;52.508;13.454;2023-10-19T11:02:45;8.30;99.90
6538;DHT22;3302;52.508;13.454;2023-10-19T11:05:14;8.10;99.90
6538;DHT22;3302;52.508;13.454;2023-10-19T11:08:13;8.20;99.90
6538;DHT22;3302;52.508;13.454;2023-10-19T11:10:40;8.20;99.90
6538;DHT22;3302;52.508;13.454;2023-10-19T11:13:11;8.20;99.90
6538;DHT22;3302;52.508;13.454;2023-10-19T11:15:38;8.10;99.90
6538;DHT22;3302;52.508;13.454;2023-10-19T11:18:05;8.20;99.90
6538;DHT22;3302;52.508;13.454;2023-10-19T11:20:33;8.10;99.90
6538;DHT22;3302;52.508;13.454;2023-10-19T11:22:59;8.00;99.90
6538;DHT22;3302;52.508;13.454;2023-10-19T11:25:29;8.00;99.90
6538;DHT22;3302;52.508;13.454;2023-10-19T11:28:00;8.00;99.90
6538;DHT22;3302;52.508;13.454;2023-10-19T11:30:29;7.90;99.90
6538;DHT22;3302;52.508;13.454;2023-10-19T11:32:56;7.90;99.90
6538;DHT22;3302;52.508;13.454;2023-10-19T11:35:31;7.90;99.90
6538;DHT22;3302;52.508;13.454;2023-10-19T11:37:58;7.90;99.90
6538;DHT22;3302;52.508;13.454;2023-10-19T11:40:25;7.90;99.90
6538;DHT22;3302;52.508;13.454;2023-10-19T11:42:52;8.00;99.90
6538;DHT22;3302;52.508;13.454;2023-10-19T11:45:22;8.00;99.90
6538;DHT22;3302;52.508;13.454;2023-10-19T11:47:52;7.90;99.90
6538;DHT22;3302;52.508;13.454;2023-10-19T11:50:18;7.80;99.90
6538;DHT22;3302;52.508;13.454;2023-10-19T11:52:45;8.00;99.90
6538;DHT22;3302;52.508;13.454;2023-10-19T11:55:13;7.90;99.90
6538;DHT22;3302;52.508;13.454;2023-10-19T11:57:40;8.00;99.90
6538;DHT22;3302;52.508;13.454;2023-10-19T12:00:06;8.00;99.90
6538;DHT22;3302;52.508;13.454;2023-10-19T12:02:38;7.80;99.90
6538;DHT22;3302;52.508;13.454;2023-10-19T12:05:05;7.80;99.90
6538;DHT22;3302;52.508;13.454;2023-10-19T12:07:36;8.00;99.90
6538;DHT22;3302;52.508;13.454;2023-10-19T12:10:04;8.00;99.90
6538;DHT22;3302;52.508;13.454;2023-10-19T12:12:30;8.00;99.90
6538;DHT22;3302;52.508;13.454;2023-10-19T12:14:55;8.00;99.90
6538;DHT22;3302;52.508;13.454;2023-10-19T12:17:21;8.10;99.90
6538;DHT22;3302;52.508;13.454;2023-10-19T12:19:48;8.00;99.90
6538;DHT22;3302;52.508;13.454;2023-10-19T12:22:13;8.00;99.90
6538;DHT22;3302;52.508;13.454;2023-10-19T12:24:39;8.10;99.90
6538;DHT22;3302;52.508;13.454;2023-10-19T12:27:05;8.10;99.90
6538;DHT22;3302;52.508;13.454;2023-10-19T12:29:33;7.90;99.90
6538;DHT22;3302;52.508;13.454;2023-10-19T12:31:59;8.10;99.90
6538;DHT22;3302;52.508;13.454;2023-10-19T12:34:25;8.10;99.90
6538;DHT22;3302;52.508;13.454;2023-10-19T12:36:50;8.00;99.90
6538;DHT22;3302;52.508;13.454;2023-10-19T12:39:17;7.90;99.90
6538;DHT22;3302;52.508;13.454;2023-10-19T12:42:05;7.80;99.90
6538;DHT22;3302;52.508;13.454;2023-10-19T12:44:34;7.90;99.90
6538;DHT22;3302;52.508;13.454;2023-10-19T12:47:06;7.90;99.90
6538;DHT22;3302;52.508;13.454;2023-10-19T12:49:42;8.00;99.90
6538;DHT22;3302;52.508;13.454;2023-10-19T12:52:10;8.00;99.90
6538;DHT22;3302;52.508;13.454;2023-10-19T12:54:37;8.00;99.90
6538;DHT22;3302;52.508;13.454;2023-10-19T12:57:03;7.90;99.90
6538;DHT22;3302;52.508;13.454;2023-10-19T12:59:33;7.90;99.90
6538;DHT22;3302;52.508;13.454;2023-10-19T13:01:59;7.90;99.90
6538;DHT22;3302;52.508;13.454;2023-10-19T13:04:28;8.00;99.90
6538;DHT22;3302;52.508;13.454;2023-10-19T13:06:56;7.70;99.90
6538;DHT22;3302;52.508;13.454;2023-10-19T13:09:26;7.90;99.90
6538;DHT22;3302;52.508;13.454;2023-10-19T13:12:00;8.00;99.90
6538;DHT22;3302;52.508;13.454;2023-10-19T13:14:26;7.80;99.90
6538;DHT22;3302;52.508;13.454;2023-10-19T13:16:52;7.80;99.90
6538;DHT22;3302;52.508;13.454;2023-10-19T13:19:20;7.80;99.90
6538;DHT22;3302;52.508;13.454;2023-10-19T13:21:50;7.90;99.90
6538;DHT22;3302;52.508;13.454;2023-10-19T13:24:17;8.00;99.90
6538;DHT22;3302;52.508;13.454;2023-10-19T13:26:43;7.80;99.90
6538;DHT22;3302;52.508;13.454;2023-10-19T13:29:13;7.90;99.90
6538;DHT22;3302;52.508;13.454;2023-10-19T13:31:41;7.70;99.90
6538;DHT22;3302;52.508;13.454;2023-10-19T13:34:07;7.80;99.90
6538;DHT22;3302;52.508;13.454;2023-10-19T13:36:36;7.90;99.90
6538;DHT22;3302;52.508;13.454;2023-10-19T13:39:02;7.90;99.90
6538;DHT22;3302;52.508;13.454;2023-10-19T13:41:29;7.90;99.90
6538;DHT22;3302;52.508;13.454;2023-10-19T13:43:55;7.80;99.90
6538;DHT22;3302;52.508;13.454;2023-10-19T13:46:21;7.80;99.90
6538;DHT22;3302;52.508;13.454;2023-10-19T13:48:49;7.80;99.90
6538;DHT22;3302;52.508;13.454;2023-10-19T13:51:18;7.80;99.90
6538;DHT22;3302;52.508;13.454;2023-10-19T13:53:45;7.70;99.90
6538;DHT22;3302;52.508;13.454;2023-10-19T13:56:12;7.80;99.90
6538;DHT22;3302;52.508;13.454;2023-10-19T13:58:40;7.70;99.90
6538;DHT22;3302;52.508;13.454;2023-10-19T14:01:10;7.60;99.90
6538;DHT22;3302;52.508;13.454;2023-10-19T14:03:37;7.70;99.90
6538;DHT22;3302;52.508;13.454;2023-10-19T14:06:12;7.80;99.90
6538;DHT22;3302;52.508;13.454;2023-10-19T14:08:39;7.70;99.90
6538;DHT22;3302;52.508;13.454;2023-10-19T14:11:04;7.60;99.90
6538;DHT22;3302;52.508;13.454;2023-10-19T14:13:32;7.70;99.90
6538;DHT22;3302;52.508;13.454;2023-10-19T14:15:57;7.90;99.90
6538;DHT22;3302;52.508;13.454;2023-10-19T14:18:23;7.80;99.90
6538;DHT22;3302;52.508;13.454;2023-10-19T14:20:49;7.70;99.90
6538;DHT22;3302;52.508;13.454;2023-10-19T14:23:15;7.80;99.90
6538;DHT22;3302;52.508;13.454;2023-10-19T14:25:40;7.90;99.90
6538;DHT22;3302;52.508;13.454;2023-10-19T14:28:08;7.90;99.90
6538;DHT22;3302;52.508;13.454;2023-10-19T14:30:35;7.90;99.90
6538;DHT22;3302;52.508;13.454;2023-10-19T14:33:02;7.70;99.90
6538;DHT22;3302;52.508;13.454;2023-10-19T14:35:28;7.70;99.90
6538;DHT22;3302;52.508;13.454;2023-10-19T14:37:56;7.70;99.90
6538;DHT22;3302;52.508;13.454;2023-10-19T14:40:24;8.00;99.90
6538;DHT22;3302;52.508;13.454;2023-10-19T14:42:51;8.00;99.90
6538;DHT22;3302;52.508;13.454;2023-10-19T14:45:21;7.80;99.90
6538;DHT22;3302;52.508;13.454;2023-10-19T14:47:52;7.80;99.90
6538;DHT22;3302;52.508;13.454;2023-10-19T14:50:18;7.80;99.90
6538;DHT22;3302;52.508;13.454;2023-10-19T14:52:46;7.70;99.90
6538;DHT22;3302;52.508;13.454;2023-10-19T14:55:13;7.70;99.90
6538;DHT22;3302;52.508;13.454;2023-10-19T14:57:41;7.70;99.90
6538;DHT22;3302;52.508;13.454;2023-10-19T15:00:09;7.50;99.90
6538;DHT22;3302;52.508;13.454;2023-10-19T15:02:49;7.50;99.90
6538;DHT22;3302;52.508;13.454;2023-10-19T15:05:19;7.60;99.90
6538;DHT22;3302;52.508;13.454;2023-10-19T15:07:50;7.70;99.90
6538;DHT22;3302;52.508;13.454;2023-10-19T15:10:22;7.50;99.90
6538;DHT22;3302;52.508;13.454;2023-10-19T15:12:48;7.70;99.90
6538;DHT22;3302;52.508;13.454;2023-10-19T15:15:14;7.80;99.90
6538;DHT22;3302;52.508;13.454;2023-10-19T15:17:41;7.50;99.90
6538;DHT22;3302;52.508;13.454;2023-10-19T15:20:08;7.50;99.90
6538;DHT22;3302;52.508;13.454;2023-10-19T15:22:46;7.70;99.90
6538;DHT22;3302;52.508;13.454;2023-10-19T15:25:13;7.70;99.90
6538;DHT22;3302;52.508;13.454;2023-10-19T15:27:41;7.80;99.90
6538;DHT22;3302;52.508;13.454;2023-10-19T15:30:09;7.60;99.90
6538;DHT22;3302;52.508;13.454;2023-10-19T15:32:37;7.70;99.90
6538;DHT22;3302;52.508;13.454;2023-10-19T15:35:04;7.80;99.90
6538;DHT22;3302;52.508;13.454;2023-10-19T15:37:30;7.70;99.90
6538;DHT22;3302;52.508;13.454;2023-10-19T15:39:56;7.80;99.90
6538;DHT22;3302;52.508;13.454;2023-10-19T15:42:22;7.70;99.90
6538;DHT22;3302;52.508;13.454;2023-10-19T15:44:50;7.60;99.90
6538;DHT22;3302;52.508;13.454;2023-10-19T15:47:17;7.50;99.90
6538;DHT22;3302;52.508;13.454;2023-10-19T15:49:54;7.50;99.90
6538;DHT22;3302;52.508;13.454;2023-10-19T15:52:24;7.60;99.90
6538;DHT22;3302;52.508;13.454;2023-10-19T15:54:50;7.60;99.90
6538;DHT22;3302;52.508;13.454;2023-10-19T15:57:19;7.50;99.90
6538;DHT22;3302;52.508;13.454;2023-10-19T15:59:45;7.50;99.90
6538;DHT22;3302;52.508;13.454;2023-10-19T16:02:13;7.50;99.90
6538;DHT22;3302;52.508;13.454;2023-10-19T16:04:44;7.50;99.90
6538;DHT22;3302;52.508;13.454;2023-10-19T16:07:11;7.70;99.90
6538;DHT22;3302;52.508;13.454;2023-10-19T16:09:38;7.60;99.90
6538;DHT22;3302;52.508;13.454;2023-10-19T16:12:04;7.70;99.90
6538;DHT22;3302;52.508;13.454;2023-10-19T16:14:30;7.60;99.90
6538;DHT22;3302;52.508;13.454;2023-10-19T16:16:56;7.60;99.90
6538;DHT22;3302;52.508;13.454;2023-10-19T16:19:22;7.70;99.90
6538;DHT22;3302;52.508;13.454;2023-10-19T16:21:50;7.50;99.90